createdAt,value
2018-12-13T00:00:49.378Z,2.35
2018-12-13T00:03:31.635Z,2.32
2018-12-13T00:06:13.479Z,2.30
2018-12-13T00:08:56.355Z,2.30
2018-12-13T00:11:38.751Z,2.35
2018-12-13T00:14:21.376Z,2.37
2018-12-13T00:17:03.960Z,2.30
2018-12-13T00:19:46.611Z,2.33
2018-12-13T00:22:29.817Z,2.22
2018-12-13T00:25:12.451Z,2.32
2018-12-13T00:27:55.247Z,2.30
2018-12-13T00:30:38.266Z,2.36
2018-12-13T00:33:20.581Z,2.29
2018-12-13T00:36:02.988Z,2.32
2018-12-13T00:38:45.069Z,2.19
2018-12-13T00:41:27.811Z,2.33
2018-12-13T00:44:10.691Z,2.39
2018-12-13T00:46:52.459Z,2.29
2018-12-13T00:49:34.704Z,2.15
2018-12-13T00:52:16.843Z,2.15
2018-12-13T00:54:59.064Z,2.15
2018-12-13T00:57:41.700Z,2.15
2018-12-13T01:00:24.019Z,2.10
2018-12-13T01:03:06.464Z,2.02
2018-12-13T01:05:50.926Z,2.07
2018-12-13T01:08:33.666Z,2.06
2018-12-13T01:11:16.735Z,2.04
2018-12-13T01:13:58.861Z,2.06
2018-12-13T01:16:41.573Z,2.04
2018-12-13T01:19:23.308Z,1.86
2018-12-13T01:22:05.446Z,1.79
2018-12-13T01:24:47.573Z,1.76
2018-12-13T01:27:30.015Z,1.77
2018-12-13T01:30:12.506Z,1.65
2018-12-13T01:32:55.612Z,1.67
2018-12-13T01:35:37.584Z,1.63
2018-12-13T01:38:20.021Z,1.56
2018-12-13T01:41:02.446Z,1.49
2018-12-13T01:43:46.056Z,1.44
2018-12-13T01:46:28.281Z,1.45
2018-12-13T01:49:10.344Z,1.35
2018-12-13T01:51:53.020Z,1.32
2018-12-13T01:54:35.090Z,1.32
2018-12-13T01:57:17.678Z,1.30
2018-12-13T02:00:00.656Z,1.27
2018-12-13T02:02:42.714Z,1.21
2018-12-13T02:05:25.213Z,1.13
2018-12-13T02:08:07.521Z,1.19
2018-12-13T02:10:50.138Z,1.15
2018-12-13T02:13:32.549Z,1.12
2018-12-13T02:16:15.263Z,1.14
2018-12-13T02:18:57.680Z,1.16
2018-12-13T02:21:40.894Z,1.06
2018-12-13T02:24:23.680Z,1.12
2018-12-13T02:27:06.031Z,1.11
2018-12-13T02:29:48.007Z,1.09
2018-12-13T02:32:30.544Z,1.04
2018-12-13T02:35:13.518Z,1.09
2018-12-13T02:37:55.951Z,1.07
2018-12-13T02:40:37.973Z,1.10
2018-12-13T02:43:20.452Z,1.09
2018-12-13T02:46:04.066Z,1.13
2018-12-13T02:48:47.199Z,1.17
2018-12-13T02:51:30.108Z,1.24
2018-12-13T02:54:13.649Z,1.24
2018-12-13T02:56:56.365Z,1.20
2018-12-13T02:59:38.859Z,1.33
2018-12-13T03:02:21.682Z,1.45
2018-12-13T03:05:05.097Z,1.50
2018-12-13T03:07:48.237Z,1.50
2018-12-13T03:10:30.925Z,1.41
2018-12-13T03:13:13.949Z,1.40
2018-12-13T03:15:56.242Z,1.36
2018-12-13T03:18:38.973Z,1.32
2018-12-13T03:21:21.011Z,1.25
2018-12-13T03:24:03.795Z,1.30
2018-12-13T03:26:46.327Z,1.23
2018-12-13T03:29:28.352Z,1.22
2018-12-13T03:32:10.575Z,1.15
2018-12-13T03:34:53.196Z,1.08
2018-12-13T03:37:35.582Z,0.98
2018-12-13T03:40:18.167Z,0.95
2018-12-13T03:43:00.885Z,0.89
2018-12-13T03:45:43.159Z,0.84
2018-12-13T03:48:26.697Z,0.87
2018-12-13T03:51:09.351Z,0.85
2018-12-13T03:53:52.020Z,0.79
2018-12-13T03:56:34.984Z,0.75
2018-12-13T03:59:17.760Z,0.67
2018-12-13T04:02:00.476Z,0.65
2018-12-13T04:04:42.839Z,0.64
2018-12-13T04:07:27.842Z,0.57
2018-12-13T04:10:09.126Z,0.61
2018-12-13T04:12:51.862Z,0.57
2018-12-13T04:15:34.861Z,0.48
2018-12-13T04:18:16.963Z,0.54
2018-12-13T04:20:59.315Z,0.55
2018-12-13T04:23:41.799Z,0.60
2018-12-13T04:26:24.260Z,0.56
2018-12-13T04:29:06.719Z,0.54
2018-12-13T04:31:49.403Z,0.44
2018-12-13T04:34:32.226Z,0.46
2018-12-13T04:37:14.048Z,0.41
2018-12-13T04:39:56.680Z,0.37
2018-12-13T04:42:39.488Z,0.34
2018-12-13T04:45:21.793Z,0.41
2018-12-13T04:48:05.282Z,0.42
2018-12-13T04:50:48.383Z,0.36
2018-12-13T04:53:30.376Z,0.26
2018-12-13T04:56:13.324Z,0.23
2018-12-13T04:58:56.573Z,0.19
2018-12-13T05:01:39.066Z,0.16
2018-12-13T05:04:22.292Z,0.18
2018-12-13T05:07:05.518Z,0.11
2018-12-13T05:09:47.526Z,0.13
2018-12-13T05:12:30.231Z,0.07
2018-12-13T05:15:12.333Z,0.07
2018-12-13T05:17:54.737Z,0.07
2018-12-13T05:20:37.555Z,0.05
2018-12-13T05:23:19.657Z,0.05
2018-12-13T05:26:02.178Z,0.07
2018-12-13T05:28:44.483Z,0.06
2018-12-13T05:31:26.822Z,0.05
2018-12-13T05:34:09.371Z,0.08
2018-12-13T05:36:52.258Z,0.05
2018-12-13T05:39:34.327Z,0.10
2018-12-13T05:42:16.885Z,0.02
2018-12-13T05:44:59.354Z,0.05
2018-12-13T05:47:41.995Z,0.04
2018-12-13T05:50:24.644Z,-0.02
2018-12-13T05:53:07.564Z,0.06
2018-12-13T05:55:50.034Z,0.08
2018-12-13T05:58:32.443Z,0.05
2018-12-13T06:01:14.268Z,0.05
2018-12-13T06:03:56.729Z,-0.01
2018-12-13T06:06:39.105Z,-0.02
2018-12-13T06:09:20.916Z,-0.01
2018-12-13T06:12:03.102Z,-0.05
2018-12-13T06:14:44.902Z,-0.01
2018-12-13T06:17:44.070Z,0.02
2018-12-13T06:21:29.400Z,-0.01
2018-12-13T06:24:15.069Z,-0.03
2018-12-13T06:26:56.618Z,-0.06
2018-12-13T06:29:41.772Z,-0.06
2018-12-13T06:32:23.108Z,-0.04
2018-12-13T06:35:05.973Z,-0.06
2018-12-13T06:37:47.767Z,-0.06
2018-12-13T06:40:29.560Z,-0.03
2018-12-13T06:43:12.935Z,-0.07
2018-12-13T06:45:58.908Z,-0.06
2018-12-13T06:48:41.327Z,-0.07
2018-12-13T06:51:24.126Z,-0.11
2018-12-13T06:54:06.533Z,-0.10
2018-12-13T06:56:48.854Z,-0.07
2018-12-13T06:59:31.604Z,-0.12
2018-12-13T07:02:13.582Z,-0.21
2018-12-13T07:04:59.037Z,-0.21
2018-12-13T07:07:40.941Z,-0.26
2018-12-13T07:10:23.965Z,-0.25
2018-12-13T07:13:06.002Z,-0.27
2018-12-13T07:15:48.689Z,-0.26
2018-12-13T07:18:30.832Z,-0.21
2018-12-13T07:21:12.474Z,-0.31
2018-12-13T07:23:54.253Z,-0.32
2018-12-13T07:26:36.554Z,-0.33
2018-12-13T07:29:18.555Z,-0.37
2018-12-13T07:32:00.757Z,-0.33
2018-12-13T07:34:43.466Z,-0.29
2018-12-13T07:37:25.692Z,-0.24
2018-12-13T07:40:09.197Z,-0.24
2018-12-13T07:42:51.030Z,-0.24
2018-12-13T07:45:33.813Z,-0.21
2018-12-13T07:48:15.954Z,-0.14
2018-12-13T07:50:58.548Z,-0.11
2018-12-13T07:53:41.252Z,-0.10
2018-12-13T07:56:24.088Z,-0.08
2018-12-13T07:59:06.462Z,-0.02
2018-12-13T08:01:48.992Z,0.03
2018-12-13T08:04:31.852Z,0.08
2018-12-13T08:07:14.469Z,0.16
2018-12-13T08:09:56.611Z,0.25
2018-12-13T08:12:39.622Z,1.02
2018-12-13T08:15:21.662Z,0.76
2018-12-13T08:18:03.824Z,0.75
2018-12-13T08:20:46.090Z,0.56
2018-12-13T08:23:28.643Z,0.78
2018-12-13T08:26:10.972Z,0.52
2018-12-13T08:28:52.650Z,0.49
2018-12-13T08:31:36.177Z,0.58
2018-12-13T08:34:19.393Z,0.69
2018-12-13T08:37:01.726Z,0.74
2018-12-13T08:39:44.529Z,0.82
2018-12-13T08:42:26.722Z,1.02
2018-12-13T08:45:09.078Z,1.18
2018-12-13T08:47:51.359Z,1.28
2018-12-13T08:50:34.049Z,0.90
2018-12-13T08:53:16.092Z,0.84
2018-12-13T08:55:57.670Z,0.91
2018-12-13T08:58:39.737Z,1.09
2018-12-13T09:01:22.162Z,1.16
2018-12-13T09:04:03.753Z,1.17
2018-12-13T09:06:45.226Z,1.19
2018-12-13T09:09:26.936Z,1.24
2018-12-13T09:12:09.811Z,1.25
2018-12-13T09:14:52.059Z,1.34
2018-12-13T09:17:34.241Z,1.38
2018-12-13T09:20:15.871Z,1.29
2018-12-13T09:22:58.038Z,1.59
2018-12-13T09:25:39.639Z,1.61
2018-12-13T09:28:21.307Z,1.76
2018-12-13T09:31:03.910Z,1.79
2018-12-13T09:33:46.821Z,1.80
2018-12-13T09:36:28.518Z,1.88
2018-12-13T09:39:10.125Z,2.06
2018-12-13T09:41:52.467Z,1.98
2018-12-13T09:44:35.447Z,2.27
2018-12-13T09:47:17.972Z,2.20
2018-12-13T09:50:00.362Z,2.41
2018-12-13T09:52:43.464Z,2.12
2018-12-13T09:55:25.773Z,2.38
2018-12-13T09:58:08.181Z,2.09
2018-12-13T10:00:50.996Z,2.65
2018-12-13T10:03:32.794Z,2.78
2018-12-13T10:06:15.108Z,2.69
2018-12-13T10:08:56.780Z,2.52
2018-12-13T10:11:38.033Z,2.36
2018-12-13T10:14:20.214Z,2.36
2018-12-13T10:17:02.394Z,2.40
2018-12-13T10:19:43.986Z,2.25
2018-12-13T10:22:25.387Z,2.05
2018-12-13T10:25:06.825Z,2.10
2018-12-13T10:27:48.417Z,1.98
2018-12-13T10:30:30.223Z,2.04
2018-12-13T10:33:11.725Z,2.03
2018-12-13T10:35:54.609Z,2.08
2018-12-13T10:38:36.450Z,2.30
2018-12-13T10:41:18.335Z,2.28
2018-12-13T10:44:00.226Z,2.36
2018-12-13T10:46:42.517Z,2.54
2018-12-13T10:49:23.994Z,2.48
2018-12-13T10:52:05.697Z,2.60
2018-12-13T10:54:47.708Z,2.59
2018-12-13T10:57:30.021Z,2.64
2018-12-13T11:00:19.455Z,2.68
2018-12-13T11:03:21.043Z,2.73
2018-12-13T11:06:05.680Z,2.66
2018-12-13T11:08:50.293Z,2.87
2018-12-13T11:11:43.230Z,2.97
2018-12-13T11:14:33.534Z,3.13
2018-12-13T11:17:19.812Z,3.28
2018-12-13T11:20:03.862Z,3.46
2018-12-13T11:22:47.360Z,3.57
2018-12-13T11:25:31.827Z,3.33
2018-12-13T11:28:26.155Z,2.92
2018-12-13T11:31:10.316Z,3.20
2018-12-13T11:33:52.061Z,3.49
2018-12-13T11:36:34.173Z,3.91
2018-12-13T11:39:16.678Z,4.43
2018-12-13T11:41:57.939Z,3.98
2018-12-13T11:44:39.830Z,4.07
2018-12-13T11:47:25.681Z,4.31
2018-12-13T11:50:08.516Z,4.13
2018-12-13T11:52:50.397Z,4.29
2018-12-13T11:55:34.517Z,4.04
2018-12-13T11:58:16.906Z,3.94
2018-12-13T12:00:58.677Z,3.99
2018-12-13T12:03:40.694Z,3.54
2018-12-13T12:06:23.111Z,3.44
2018-12-13T12:09:12.011Z,3.65
2018-12-13T12:11:51.165Z,4.06
2018-12-13T12:14:34.557Z,3.24
2018-12-13T12:17:17.303Z,3.57
2018-12-13T12:20:03.662Z,3.67
2018-12-13T12:22:46.779Z,3.68
2018-12-13T12:25:30.064Z,3.28
2018-12-13T12:28:12.511Z,3.17
2018-12-13T12:30:55.175Z,3.26
2018-12-13T12:33:37.391Z,3.28
2018-12-13T12:36:19.954Z,3.48
2018-12-13T12:39:04.466Z,3.35
2018-12-13T12:41:57.283Z,3.27
2018-12-13T12:44:49.329Z,3.25
2018-12-13T12:47:32.557Z,3.56
2018-12-13T12:50:17.585Z,3.64
2018-12-13T12:52:59.291Z,3.51
2018-12-13T12:55:40.968Z,3.25
2018-12-13T12:58:23.691Z,3.16
2018-12-13T13:01:06.261Z,3.05
2018-12-13T13:03:48.366Z,3.13
2018-12-13T13:06:35.361Z,3.48
2018-12-13T13:09:25.057Z,3.46
2018-12-13T13:12:05.635Z,3.26
2018-12-13T13:14:48.345Z,3.27
2018-12-13T13:17:30.133Z,3.17
2018-12-13T13:20:12.128Z,3.20
2018-12-13T13:22:54.306Z,3.17
2018-12-13T13:25:35.858Z,3.10
2018-12-13T13:28:17.297Z,3.22
2018-12-13T13:30:59.432Z,3.19
2018-12-13T13:33:41.599Z,3.09
2018-12-13T13:36:23.182Z,2.97
2018-12-13T13:39:07.170Z,2.96
2018-12-13T13:41:49.322Z,2.98
2018-12-13T13:44:37.980Z,2.93
2018-12-13T13:47:20.729Z,2.92
2018-12-13T13:50:03.092Z,2.95
2018-12-13T13:52:45.239Z,2.96
2018-12-13T13:55:27.189Z,3.10
2018-12-13T13:58:10.087Z,2.94
2018-12-13T14:00:52.295Z,3.03
2018-12-13T14:03:34.576Z,2.91
2018-12-13T14:06:16.615Z,2.94
2018-12-13T14:09:04.188Z,2.95
2018-12-13T14:11:46.240Z,3.05
2018-12-13T14:14:28.433Z,3.05
2018-12-13T14:17:10.950Z,2.91
2018-12-13T14:19:53.384Z,2.88
2018-12-13T14:22:35.816Z,2.97
2018-12-13T14:25:18.174Z,2.93
2018-12-13T14:28:00.389Z,2.93
2018-12-13T14:30:43.533Z,2.99
2018-12-13T14:33:25.901Z,2.84
2018-12-13T14:36:08.747Z,2.86
2018-12-13T14:38:51.030Z,2.83
2018-12-13T14:41:35.073Z,2.86
2018-12-13T14:44:22.645Z,2.81
2018-12-13T14:47:04.030Z,2.76
2018-12-13T14:49:45.577Z,2.72
2018-12-13T14:52:27.253Z,2.70
2018-12-13T14:55:09.718Z,2.73
2018-12-13T14:57:52.293Z,2.67
2018-12-13T15:00:34.493Z,2.71
2018-12-13T15:03:16.781Z,2.72
2018-12-13T15:05:58.506Z,2.63
2018-12-13T15:08:41.113Z,2.62
2018-12-13T15:11:23.910Z,2.64
2018-12-13T15:14:06.226Z,2.63
2018-12-13T15:16:48.550Z,2.63
2018-12-13T15:19:29.836Z,2.67
2018-12-13T15:22:12.840Z,2.68
2018-12-13T15:24:55.258Z,2.66
2018-12-13T15:27:37.129Z,2.68
2018-12-13T15:30:20.708Z,2.63
2018-12-13T15:33:02.782Z,2.63
2018-12-13T15:35:44.270Z,2.74
2018-12-13T15:38:26.549Z,2.68
2018-12-13T15:41:08.717Z,2.53
2018-12-13T15:43:51.353Z,2.57
2018-12-13T15:46:33.515Z,2.56
2018-12-13T15:49:15.784Z,2.52
2018-12-13T15:51:57.682Z,2.48
2018-12-13T15:54:40.208Z,2.52
2018-12-13T15:57:22.470Z,2.44
2018-12-13T16:00:04.562Z,2.48
2018-12-13T16:02:46.617Z,2.52
2018-12-13T16:05:28.082Z,2.42
2018-12-13T16:08:10.479Z,2.42
2018-12-13T16:10:53.791Z,2.49
2018-12-13T16:13:35.657Z,2.41
2018-12-13T16:16:17.397Z,2.37
2018-12-13T16:18:59.586Z,2.34
2018-12-13T16:21:41.746Z,2.36
2018-12-13T16:24:24.024Z,2.36
2018-12-13T16:27:05.746Z,2.34
2018-12-13T16:29:47.390Z,2.37
2018-12-13T16:32:31.950Z,2.32
2018-12-13T16:35:18.935Z,2.30
2018-12-13T16:38:00.783Z,2.31
2018-12-13T16:40:43.546Z,2.29
2018-12-13T16:43:26.473Z,2.27
2018-12-13T16:46:08.002Z,2.35
2018-12-13T16:48:49.271Z,2.35
2018-12-13T16:51:31.119Z,2.33
2018-12-13T16:54:13.366Z,2.29
2018-12-13T16:56:55.224Z,2.20
2018-12-13T16:59:37.685Z,2.16
2018-12-13T17:02:20.537Z,2.25
2018-12-13T17:05:03.902Z,2.13
2018-12-13T17:07:47.335Z,2.18
2018-12-13T17:10:30.110Z,2.22
2018-12-13T17:13:12.649Z,2.16
2018-12-13T17:15:56.485Z,2.12
2018-12-13T17:18:45.972Z,2.15
2018-12-13T17:21:29.232Z,2.12
2018-12-13T17:24:12.554Z,2.10
2018-12-13T17:26:55.030Z,2.12
2018-12-13T17:29:37.526Z,2.18
2018-12-13T17:32:20.616Z,2.12
2018-12-13T17:35:02.522Z,2.15
2018-12-13T17:37:44.696Z,2.11
2018-12-13T17:40:27.878Z,2.15
2018-12-13T17:43:09.452Z,2.11
2018-12-13T17:45:50.782Z,2.06
2018-12-13T17:48:33.000Z,2.21
2018-12-13T17:51:17.642Z,2.26
2018-12-13T17:54:01.057Z,2.18
2018-12-13T17:56:49.434Z,2.00
2018-12-13T17:59:40.760Z,2.03
2018-12-13T18:02:23.409Z,2.00
2018-12-13T18:05:06.434Z,2.01
2018-12-13T18:07:48.297Z,1.94
2018-12-13T18:10:31.185Z,1.98
2018-12-13T18:13:13.604Z,2.02
2018-12-13T18:15:55.617Z,2.02
2018-12-13T18:18:37.507Z,2.00
2018-12-13T18:21:19.801Z,1.92
2018-12-13T18:24:02.094Z,1.89
2018-12-13T18:26:43.758Z,1.92
2018-12-13T18:29:27.229Z,1.92
2018-12-13T18:32:08.711Z,1.89
2018-12-13T18:34:50.402Z,1.92
2018-12-13T18:37:32.718Z,1.90
2018-12-13T18:40:14.397Z,1.90
2018-12-13T18:43:09.384Z,1.84
2018-12-13T18:46:25.272Z,1.84
2018-12-13T18:49:07.719Z,1.82
2018-12-13T18:51:51.102Z,1.93
2018-12-13T18:54:33.561Z,1.90
2018-12-13T18:57:15.773Z,1.96
2018-12-13T18:59:57.403Z,1.99
2018-12-13T19:02:38.818Z,1.95
2018-12-13T19:05:20.596Z,1.99
2018-12-13T19:08:03.006Z,1.99
2018-12-13T19:10:44.461Z,1.91
2018-12-13T19:13:26.828Z,1.85
2018-12-13T19:16:08.574Z,1.84
2018-12-13T19:18:51.702Z,1.76
2018-12-13T19:21:42.591Z,1.66
2018-12-13T19:24:24.529Z,1.64
2018-12-13T19:27:06.589Z,1.61
2018-12-13T19:29:48.517Z,1.56
2018-12-13T19:32:31.182Z,1.56
2018-12-13T19:35:19.260Z,1.57
2018-12-13T19:37:58.054Z,1.57
2018-12-13T19:40:40.342Z,1.59
2018-12-13T19:43:24.045Z,1.62
2018-12-13T19:46:06.557Z,1.72
2018-12-13T19:48:48.722Z,1.65
2018-12-13T19:51:31.273Z,1.68
2018-12-13T19:54:13.608Z,1.64
2018-12-13T19:56:55.329Z,1.67
2018-12-13T19:59:37.832Z,1.69
2018-12-13T20:02:20.236Z,1.61
2018-12-13T20:05:03.159Z,1.64
2018-12-13T20:07:46.550Z,1.65
2018-12-13T20:10:29.107Z,1.71
2018-12-13T20:13:11.700Z,1.76
2018-12-13T20:15:54.415Z,1.71
2018-12-13T20:18:36.737Z,1.68
2018-12-13T20:21:19.434Z,1.78
2018-12-13T20:24:01.458Z,1.76
2018-12-13T20:26:43.941Z,1.79
2018-12-13T20:29:26.656Z,1.87
2018-12-13T20:32:09.049Z,1.85
2018-12-13T20:34:51.368Z,1.77
2018-12-13T20:37:33.672Z,1.68
2018-12-13T20:40:15.979Z,1.68
2018-12-13T20:42:59.203Z,1.68
2018-12-13T20:45:41.510Z,1.64
2018-12-13T20:48:23.523Z,1.59
2018-12-13T20:51:06.134Z,1.58
2018-12-13T20:53:48.853Z,1.55
2018-12-13T20:56:31.170Z,1.49
2018-12-13T20:59:13.245Z,1.56
2018-12-13T21:01:56.158Z,1.50
2018-12-13T21:04:38.266Z,1.43
2018-12-13T21:07:26.281Z,1.37
2018-12-13T21:10:10.709Z,1.35
2018-12-13T21:12:53.468Z,1.33
2018-12-13T21:15:36.391Z,1.23
2018-12-13T21:18:18.718Z,1.28
2018-12-13T21:21:01.295Z,1.20
2018-12-13T21:27:30.874Z,1.06
2018-12-13T21:30:14.214Z,1.01
2018-12-13T21:32:57.313Z,1.03
2018-12-13T21:35:41.010Z,0.95
2018-12-13T21:38:23.710Z,0.96
2018-12-13T21:41:06.679Z,0.95
2018-12-13T21:43:51.272Z,1.04
2018-12-13T21:46:36.431Z,0.86
2018-12-13T21:49:21.408Z,0.75
2018-12-13T21:52:04.113Z,0.76
2018-12-13T21:54:46.928Z,0.66
2018-12-13T21:57:30.616Z,0.62
2018-12-13T22:00:15.913Z,0.53
2018-12-13T22:03:00.221Z,0.55
2018-12-13T22:05:42.901Z,0.62
2018-12-13T22:08:25.679Z,0.58
2018-12-13T22:11:10.562Z,0.71
2018-12-13T22:13:57.140Z,0.68
2018-12-13T22:16:40.187Z,0.65
2018-12-13T22:19:24.389Z,0.65
2018-12-13T22:22:08.163Z,0.61
2018-12-13T22:24:51.716Z,0.61
2018-12-13T22:27:36.042Z,0.56
2018-12-13T22:30:18.915Z,0.54
2018-12-13T22:33:04.269Z,0.45
2018-12-13T22:35:47.870Z,0.51
2018-12-13T22:38:30.960Z,0.46
2018-12-13T22:41:14.746Z,0.41
2018-12-13T22:43:58.288Z,0.45
2018-12-13T22:46:41.229Z,0.43
2018-12-13T22:49:23.843Z,0.51
2018-12-13T22:52:06.997Z,0.39
2018-12-13T22:54:51.741Z,0.31
2018-12-13T22:57:34.259Z,0.28
2018-12-13T23:00:18.585Z,0.28
2018-12-13T23:03:03.110Z,0.28
2018-12-13T23:05:46.124Z,0.25
2018-12-13T23:08:29.114Z,0.29
2018-12-13T23:11:14.436Z,0.28
2018-12-13T23:13:57.912Z,0.29
2018-12-13T23:16:40.645Z,0.23
2018-12-13T23:19:25.103Z,0.25
2018-12-13T23:22:08.142Z,0.25
2018-12-13T23:24:52.295Z,0.24
2018-12-13T23:27:36.931Z,0.21
2018-12-13T23:30:20.990Z,0.19
2018-12-13T23:33:03.768Z,0.26
2018-12-13T23:35:46.148Z,0.22
2018-12-13T23:38:31.049Z,0.26
2018-12-13T23:41:14.697Z,0.22
2018-12-13T23:43:57.693Z,0.20
2018-12-13T23:46:40.532Z,0.22
2018-12-13T23:49:23.932Z,0.25
2018-12-13T23:52:07.117Z,0.22
2018-12-13T23:54:50.137Z,0.28
2018-12-13T23:57:35.288Z,0.37
